FACT/CPT METAR and TAF weather

Enter ICAO airport designator
Station Type Date Time Source
FACT METAR 2020/07/10 19:13 UTC NOAA

FACT 101913Z 34014KT 290V010 2500 +RA FEW009 BKN030 10/08 Q1005 BECMG 4500


Station Type Date Time Source
FACT Decoded METAR 2020/07/10 19:13 UTC NOAA

Cape Town, Cape Town International Airport, South Africa (FACT) 33-59S 018-36E 0M
Jul 10, 2020 - 03:13 PM EDT / 2020.07.10 1913 UTC
Wind: from the NNW (340 degrees) at 16 MPH (14 KT) (direction variable):0
Visibility: 1 mile(s):0
Sky conditions: mostly cloudy
Weather: heavy rain
Temperature: 50 F (10 C)
Dew Point: 46 F (8 C)
Relative Humidity: 87%
Pressure (altimeter): 29.68 in. Hg (1005 hPa)
ob: FACT 101913Z 34014KT 290V010 2500 +RA FEW009 BKN030 10/08 Q1005 BECMG 4500
cycle: 19

Station Type Date Time Source
FACT TAF 2020/07/10 18:10 UTC NOAA

TAF FACT 101600Z 1018/1124 35012KT 9999 FEW020 BKN040 TX14/1112Z TN09/1106Z PROB40
TEMPO 1018/1103 3000 TSRA FEW050CB
BECMG 1101/1103 23014KT PROB40
TEMPO 1101/1105 23018G28KT
BECMG 1115/1117 33010KT

Example: see airport list